sensor_id;sensor_type;location;lat;lon;timestamp;pressure;altitude;pressure_sealevel;temperature;humidity
76605;BME280;73179;50.978;16.998;2024-01-30T00:02:16;101709.63;;;2.61;66.29
76605;BME280;73179;50.978;16.998;2024-01-30T00:04:43;101751.03;;;2.71;67.50
76605;BME280;73179;50.978;16.998;2024-01-30T00:07:09;101764.50;;;2.84;67.45
76605;BME280;73179;50.978;16.998;2024-01-30T00:09:36;101739.94;;;2.74;66.89
76605;BME280;73179;50.978;16.998;2024-01-30T00:12:02;101772.47;;;3.06;66.68
76605;BME280;73179;50.978;16.998;2024-01-30T00:14:29;101619.50;;;1.99;67.59
76605;BME280;73179;50.978;16.998;2024-01-30T00:16:55;101704.16;;;2.48;68.26
76605;BME280;73179;50.978;16.998;2024-01-30T00:19:22;101691.31;;;2.58;67.17
76605;BME280;73179;50.978;16.998;2024-01-30T00:21:48;101739.88;;;2.89;66.69
76605;BME280;73179;50.978;16.998;2024-01-30T00:24:15;101782.44;;;3.18;66.91
76605;BME280;73179;50.978;16.998;2024-01-30T00:26:41;101768.44;;;3.16;66.22
76605;BME280;73179;50.978;16.998;2024-01-30T00:29:08;101712.91;;;2.63;67.26
76605;BME280;73179;50.978;16.998;2024-01-30T00:31:35;101783.41;;;3.11;67.48
76605;BME280;73179;50.978;16.998;2024-01-30T00:34:02;101703.34;;;2.47;67.50
76605;BME280;73179;50.978;16.998;2024-01-30T00:36:28;101708.06;;;2.45;67.61
76605;BME280;73179;50.978;16.998;2024-01-30T00:38:56;101689.94;;;2.19;68.60
76605;BME280;73179;50.978;16.998;2024-01-30T00:41:23;101724.34;;;2.29;69.07
76605;BME280;73179;50.978;16.998;2024-01-30T00:43:50;101782.97;;;2.79;68.85
76605;BME280;73179;50.978;16.998;2024-01-30T00:46:16;101783.75;;;2.73;69.21
76605;BME280;73179;50.978;16.998;2024-01-30T00:48:42;101623.00;;;1.57;68.93
76605;BME280;73179;50.978;16.998;2024-01-30T00:51:08;101602.84;;;1.55;69.18
76605;BME280;73179;50.978;16.998;2024-01-30T00:53:34;101756.84;;;2.11;70.83
76605;BME280;73179;50.978;16.998;2024-01-30T00:56:00;101566.25;;;0.62;71.62
76605;BME280;73179;50.978;16.998;2024-01-30T00:58:27;101713.94;;;1.41;73.19
76605;BME280;73179;50.978;16.998;2024-01-30T01:00:53;101749.25;;;1.58;72.82
76605;BME280;73179;50.978;16.998;2024-01-30T01:03:19;101777.53;;;1.88;72.22
76605;BME280;73179;50.978;16.998;2024-01-30T01:05:45;101729.13;;;1.40;73.39
76605;BME280;73179;50.978;16.998;2024-01-30T01:08:11;101571.84;;;0.23;73.27
76605;BME280;73179;50.978;16.998;2024-01-30T01:10:37;101773.16;;;1.66;73.09
76605;BME280;73179;50.978;16.998;2024-01-30T01:13:03;101585.38;;;0.36;73.65
76605;BME280;73179;50.978;16.998;2024-01-30T01:15:29;101750.19;;;1.50;73.04
76605;BME280;73179;50.978;16.998;2024-01-30T01:17:56;101542.84;;;0.28;72.89
76605;BME280;73179;50.978;16.998;2024-01-30T01:20:22;101662.28;;;0.98;71.93
76605;BME280;73179;50.978;16.998;2024-01-30T01:22:48;101797.91;;;1.74;72.82
76605;BME280;73179;50.978;16.998;2024-01-30T01:25:14;101659.81;;;0.97;72.39
76605;BME280;73179;50.978;16.998;2024-01-30T01:27:41;101804.16;;;1.81;72.27
76605;BME280;73179;50.978;16.998;2024-01-30T01:30:09;101698.50;;;1.22;71.97
76605;BME280;73179;50.978;16.998;2024-01-30T01:32:36;101760.28;;;1.55;72.26
76605;BME280;73179;50.978;16.998;2024-01-30T01:35:04;101759.03;;;1.51;72.17
76605;BME280;73179;50.978;16.998;2024-01-30T01:37:31;101791.66;;;1.67;72.27
76605;BME280;73179;50.978;16.998;2024-01-30T01:39:57;101728.13;;;1.27;72.09
76605;BME280;73179;50.978;16.998;2024-01-30T01:42:23;101790.91;;;1.59;71.77
76605;BME280;73179;50.978;16.998;2024-01-30T01:44:49;101707.97;;;1.10;72.85
76605;BME280;73179;50.978;16.998;2024-01-30T01:47:16;101720.22;;;1.19;72.16
76605;BME280;73179;50.978;16.998;2024-01-30T01:49:42;101721.41;;;1.16;71.92
76605;BME280;73179;50.978;16.998;2024-01-30T01:52:08;101780.00;;;1.54;71.53
76605;BME280;73179;50.978;16.998;2024-01-30T01:54:35;101761.03;;;1.49;72.39
76605;BME280;73179;50.978;16.998;2024-01-30T01:57:01;101790.19;;;1.65;72.12
76605;BME280;73179;50.978;16.998;2024-01-30T01:59:27;101754.41;;;1.44;71.67
76605;BME280;73179;50.978;16.998;2024-01-30T02:01:55;101695.28;;;0.97;72.15
76605;BME280;73179;50.978;16.998;2024-01-30T02:04:21;101780.19;;;1.37;72.25
76605;BME280;73179;50.978;16.998;2024-01-30T02:06:48;101746.59;;;1.14;72.57
76605;BME280;73179;50.978;16.998;2024-01-30T02:09:14;101744.38;;;1.17;71.95
76605;BME280;73179;50.978;16.998;2024-01-30T02:11:40;101718.34;;;1.05;72.36
76605;BME280;73179;50.978;16.998;2024-01-30T02:14:07;101602.09;;;0.30;71.97
76605;BME280;73179;50.978;16.998;2024-01-30T02:16:33;101742.09;;;1.14;72.23
76605;BME280;73179;50.978;16.998;2024-01-30T02:18:59;101555.94;;;0.00;71.76
76605;BME280;73179;50.978;16.998;2024-01-30T02:21:26;101728.31;;;1.11;72.75
76605;BME280;73179;50.978;16.998;2024-01-30T02:23:53;101777.69;;;1.36;73.04
76605;BME280;73179;50.978;16.998;2024-01-30T02:26:21;101639.22;;;0.76;72.68
76605;BME280;73179;50.978;16.998;2024-01-30T02:28:47;101720.22;;;1.19;72.80
76605;BME280;73179;50.978;16.998;2024-01-30T02:31:13;101770.97;;;1.69;72.86
76605;BME280;73179;50.978;16.998;2024-01-30T02:33:39;101615.34;;;0.68;72.74
76605;BME280;73179;50.978;16.998;2024-01-30T02:36:05;101769.31;;;1.54;72.73
76605;BME280;73179;50.978;16.998;2024-01-30T02:38:31;101771.31;;;1.52;73.92
76605;BME280;73179;50.978;16.998;2024-01-30T02:40:58;101653.84;;;0.80;73.33
76605;BME280;73179;50.978;16.998;2024-01-30T02:43:24;101692.91;;;1.02;72.96
76605;BME280;73179;50.978;16.998;2024-01-30T02:45:50;101741.34;;;1.20;72.81
76605;BME280;73179;50.978;16.998;2024-01-30T02:48:16;101770.41;;;1.44;73.18
76605;BME280;73179;50.978;16.998;2024-01-30T02:50:43;101648.84;;;0.62;73.19
76605;BME280;73179;50.978;16.998;2024-01-30T02:53:09;101517.97;;;-0.08;72.93
76605;BME280;73179;50.978;16.998;2024-01-30T02:55:35;101780.19;;;1.37;73.35
76605;BME280;73179;50.978;16.998;2024-01-30T02:58:01;101778.06;;;1.33;73.31
76605;BME280;73179;50.978;16.998;2024-01-30T03:00:28;101679.81;;;0.63;73.65
76605;BME280;73179;50.978;16.998;2024-01-30T03:02:54;101705.19;;;0.74;73.95
76605;BME280;73179;50.978;16.998;2024-01-30T03:05:20;101719.19;;;1.05;74.12
76605;BME280;73179;50.978;16.998;2024-01-30T03:07:46;101629.38;;;0.47;73.29
76605;BME280;73179;50.978;16.998;2024-01-30T03:10:12;101769.88;;;1.34;73.84
76605;BME280;73179;50.978;16.998;2024-01-30T03:12:38;101570.84;;;0.10;73.07
76605;BME280;73179;50.978;16.998;2024-01-30T03:15:05;101771.34;;;1.37;73.24
76605;BME280;73179;50.978;16.998;2024-01-30T03:17:31;101649.03;;;0.46;72.98
76605;BME280;73179;50.978;16.998;2024-01-30T03:19:58;101555.50;;;0.12;73.37
76605;BME280;73179;50.978;16.998;2024-01-30T03:22:24;101756.13;;;1.67;73.29
76605;BME280;73179;50.978;16.998;2024-01-30T03:24:50;101763.66;;;1.78;72.89
76605;BME280;73179;50.978;16.998;2024-01-30T03:27:16;101714.63;;;1.64;72.33
76605;BME280;73179;50.978;16.998;2024-01-30T03:29:44;101727.81;;;1.66;71.76
76605;BME280;73179;50.978;16.998;2024-01-30T03:32:10;101680.84;;;1.21;72.56
76605;BME280;73179;50.978;16.998;2024-01-30T03:34:36;101688.66;;;1.22;72.78
76605;BME280;73179;50.978;16.998;2024-01-30T03:37:02;101684.53;;;1.34;72.50
76605;BME280;73179;50.978;16.998;2024-01-30T03:39:30;101709.44;;;1.41;72.68
76605;BME280;73179;50.978;16.998;2024-01-30T03:41:56;101561.03;;;0.25;73.41
76605;BME280;73179;50.978;16.998;2024-01-30T03:44:22;101699.69;;;0.90;74.00
76605;BME280;73179;50.978;16.998;2024-01-30T03:46:48;101627.28;;;0.42;74.60
76605;BME280;73179;50.978;16.998;2024-01-30T03:49:14;101714.97;;;1.25;73.35
76605;BME280;73179;50.978;16.998;2024-01-30T03:51:40;101605.78;;;0.59;73.28
76605;BME280;73179;50.978;16.998;2024-01-30T03:54:07;101638.56;;;0.74;73.99
76605;BME280;73179;50.978;16.998;2024-01-30T03:56:33;101687.88;;;0.92;74.65
76605;BME280;73179;50.978;16.998;2024-01-30T03:59:00;101505.81;;;-0.25;74.49
76605;BME280;73179;50.978;16.998;2024-01-30T04:01:26;101660.72;;;0.60;73.81
76605;BME280;73179;50.978;16.998;2024-01-30T04:03:52;101717.56;;;1.04;73.83
76605;BME280;73179;50.978;16.998;2024-01-30T04:06:18;101634.53;;;0.63;74.31
76605;BME280;73179;50.978;16.998;2024-01-30T04:08:45;101606.88;;;0.50;73.84
76605;BME280;73179;50.978;16.998;2024-01-30T04:11:11;101611.38;;;0.49;74.24
76605;BME280;73179;50.978;16.998;2024-01-30T04:13:37;101763.63;;;1.27;74.29
76605;BME280;73179;50.978;16.998;2024-01-30T04:16:03;101583.25;;;0.17;75.07
76605;BME280;73179;50.978;16.998;2024-01-30T04:18:30;101610.25;;;0.29;74.55
76605;BME280;73179;50.978;16.998;2024-01-30T04:20:56;101609.41;;;0.28;74.94
76605;BME280;73179;50.978;16.998;2024-01-30T04:23:22;101764.19;;;1.23;74.84
76605;BME280;73179;50.978;16.998;2024-01-30T04:25:48;101704.56;;;1.01;74.92
76605;BME280;73179;50.978;16.998;2024-01-30T04:28:14;101706.31;;;1.09;74.60
76605;BME280;73179;50.978;16.998;2024-01-30T04:30:40;101694.75;;;0.87;74.76
76605;BME280;73179;50.978;16.998;2024-01-30T04:33:06;101708.53;;;1.05;74.73
76605;BME280;73179;50.978;16.998;2024-01-30T04:35:32;101575.53;;;0.22;73.79
76605;BME280;73179;50.978;16.998;2024-01-30T04:37:59;101728.69;;;1.08;74.50
76605;BME280;73179;50.978;16.998;2024-01-30T04:40:25;101624.69;;;0.49;74.35
76605;BME280;73179;50.978;16.998;2024-01-30T04:42:51;101725.63;;;0.96;74.57
76605;BME280;73179;50.978;16.998;2024-01-30T04:45:17;101754.06;;;1.18;74.89
76605;BME280;73179;50.978;16.998;2024-01-30T04:47:43;101598.59;;;0.15;74.29
76605;BME280;73179;50.978;16.998;2024-01-30T04:50:09;101614.31;;;0.39;74.99
76605;BME280;73179;50.978;16.998;2024-01-30T04:52:36;101760.59;;;1.16;74.54
76605;BME280;73179;50.978;16.998;2024-01-30T04:55:02;101498.41;;;-0.53;75.24
76605;BME280;73179;50.978;16.998;2024-01-30T04:57:28;101421.94;;;-0.88;75.12
76605;BME280;73179;50.978;16.998;2024-01-30T04:59:54;101764.19;;;1.23;74.93
76605;BME280;73179;50.978;16.998;2024-01-30T05:02:21;101739.34;;;1.08;74.79
76605;BME280;73179;50.978;16.998;2024-01-30T05:04:47;101683.53;;;0.77;74.55
76605;BME280;73179;50.978;16.998;2024-01-30T05:07:14;101712.31;;;0.96;74.40
76605;BME280;73179;50.978;16.998;2024-01-30T05:09:40;101770.13;;;1.25;74.41
76605;BME280;73179;50.978;16.998;2024-01-30T05:12:07;101749.94;;;1.16;74.16
76605;BME280;73179;50.978;16.998;2024-01-30T05:14:33;101507.69;;;-0.49;74.41
76605;BME280;73179;50.978;16.998;2024-01-30T05:16:59;101713.03;;;0.90;74.67
76605;BME280;73179;50.978;16.998;2024-01-30T05:19:25;101774.94;;;1.29;74.51
76605;BME280;73179;50.978;16.998;2024-01-30T05:21:52;101718.47;;;0.97;74.28
76605;BME280;73179;50.978;16.998;2024-01-30T05:24:18;101663.38;;;0.60;74.36
76605;BME280;73179;50.978;16.998;2024-01-30T05:26:44;101564.50;;;-0.04;74.75
76605;BME280;73179;50.978;16.998;2024-01-30T05:29:10;101554.19;;;-0.07;74.75
76605;BME280;73179;50.978;16.998;2024-01-30T05:31:36;101681.03;;;0.75;74.50
76605;BME280;73179;50.978;16.998;2024-01-30T05:34:03;101720.31;;;0.96;74.44
76605;BME280;73179;50.978;16.998;2024-01-30T05:36:29;101774.66;;;1.24;74.84
76605;BME280;73179;50.978;16.998;2024-01-30T05:38:56;101704.94;;;0.83;74.56
76605;BME280;73179;50.978;16.998;2024-01-30T05:41:23;101717.06;;;0.86;74.21
76605;BME280;73179;50.978;16.998;2024-01-30T05:43:49;101612.44;;;0.25;74.40
76605;BME280;73179;50.978;16.998;2024-01-30T05:46:16;101733.97;;;0.93;74.25
76605;BME280;73179;50.978;16.998;2024-01-30T05:48:41;101523.88;;;-0.35;74.51
76605;BME280;73179;50.978;16.998;2024-01-30T05:51:08;101778.69;;;1.20;75.29
76605;BME280;73179;50.978;16.998;2024-01-30T05:53:34;101636.97;;;0.35;75.04
76605;BME280;73179;50.978;16.998;2024-01-30T05:56:04;101684.53;;;0.61;75.16
76605;BME280;73179;50.978;16.998;2024-01-30T05:58:30;101745.47;;;0.93;75.13
76605;BME280;73179;50.978;16.998;2024-01-30T06:01:00;101737.31;;;0.95;75.08
76605;BME280;73179;50.978;16.998;2024-01-30T06:03:26;101694.19;;;0.77;74.98
76605;BME280;73179;50.978;16.998;2024-01-30T06:05:52;101737.41;;;1.02;74.59
76605;BME280;73179;50.978;16.998;2024-01-30T06:08:18;101677.09;;;0.71;74.56
76605;BME280;73179;50.978;16.998;2024-01-30T06:10:44;101778.44;;;1.30;74.00
76605;BME280;73179;50.978;16.998;2024-01-30T06:13:10;101728.69;;;1.22;74.17
76605;BME280;73179;50.978;16.998;2024-01-30T06:15:37;101733.63;;;1.40;73.25
76605;BME280;73179;50.978;16.998;2024-01-30T06:18:03;101673.78;;;1.13;73.02
76605;BME280;73179;50.978;16.998;2024-01-30T06:20:29;101687.19;;;1.05;73.24
76605;BME280;73179;50.978;16.998;2024-01-30T06:22:55;101694.19;;;1.21;72.81
76605;BME280;73179;50.978;16.998;2024-01-30T06:25:22;101729.53;;;1.59;72.12
76605;BME280;73179;50.978;16.998;2024-01-30T06:27:47;101761.88;;;2.00;71.47
76605;BME280;73179;50.978;16.998;2024-01-30T06:30:14;101717.31;;;1.85;70.48
76605;BME280;73179;50.978;16.998;2024-01-30T06:32:41;101686.88;;;1.80;70.20
76605;BME280;73179;50.978;16.998;2024-01-30T06:35:08;101733.44;;;2.13;70.45
76605;BME280;73179;50.978;16.998;2024-01-30T06:37:34;101753.88;;;2.42;69.53
76605;BME280;73179;50.978;16.998;2024-01-30T06:40:00;101738.84;;;2.41;68.64
76605;BME280;73179;50.978;16.998;2024-01-30T06:42:26;101772.19;;;2.45;69.41
76605;BME280;73179;50.978;16.998;2024-01-30T06:44:52;101693.63;;;1.97;69.17
76605;BME280;73179;50.978;16.998;2024-01-30T06:47:18;101722.44;;;2.44;68.43
76605;BME280;73179;50.978;16.998;2024-01-30T06:49:45;101765.97;;;2.87;67.39
76605;BME280;73179;50.978;16.998;2024-01-30T06:52:11;101765.25;;;3.00;67.21
76605;BME280;73179;50.978;16.998;2024-01-30T06:54:37;101604.09;;;2.01;67.40
76605;BME280;73179;50.978;16.998;2024-01-30T06:57:03;101627.56;;;2.27;66.43
76605;BME280;73179;50.978;16.998;2024-01-30T06:59:29;101751.72;;;3.08;66.97
76605;BME280;73179;50.978;16.998;2024-01-30T07:01:55;101513.13;;;1.75;66.66
76605;BME280;73179;50.978;16.998;2024-01-30T07:04:22;101671.47;;;2.73;66.16
76605;BME280;73179;50.978;16.998;2024-01-30T07:06:48;101669.22;;;2.77;66.47
76605;BME280;73179;50.978;16.998;2024-01-30T07:09:14;101724.16;;;3.14;66.01
76605;BME280;73179;50.978;16.998;2024-01-30T07:11:40;101568.41;;;2.36;65.41
76605;BME280;73179;50.978;16.998;2024-01-30T07:14:08;101606.44;;;2.66;64.97
76605;BME280;73179;50.978;16.998;2024-01-30T07:16:37;101726.88;;;3.55;64.78
76605;BME280;73179;50.978;16.998;2024-01-30T07:19:03;101760.66;;;3.62;65.08
76605;BME280;73179;50.978;16.998;2024-01-30T07:21:29;101584.41;;;2.64;64.58
76605;BME280;73179;50.978;16.998;2024-01-30T07:23:55;101753.53;;;3.82;64.47
76605;BME280;73179;50.978;16.998;2024-01-30T07:26:21;101696.50;;;3.34;64.72
76605;BME280;73179;50.978;16.998;2024-01-30T07:28:48;101621.69;;;2.72;64.48
76605;BME280;73179;50.978;16.998;2024-01-30T07:31:15;101749.97;;;3.69;64.20
76605;BME280;73179;50.978;16.998;2024-01-30T07:33:42;101669.75;;;3.41;63.29
76605;BME280;73179;50.978;16.998;2024-01-30T07:36:08;101740.00;;;3.97;63.39
76605;BME280;73179;50.978;16.998;2024-01-30T07:38:34;101777.75;;;4.22;62.99
76605;BME280;73179;50.978;16.998;2024-01-30T07:41:00;101666.34;;;3.67;63.11
76605;BME280;73179;50.978;16.998;2024-01-30T07:43:26;101733.66;;;4.24;62.52
76605;BME280;73179;50.978;16.998;2024-01-30T07:45:52;101737.78;;;4.20;62.78
76605;BME280;73179;50.978;16.998;2024-01-30T07:48:19;101713.03;;;4.25;61.88
76605;BME280;73179;50.978;16.998;2024-01-30T07:50:45;101651.41;;;4.05;61.63
76605;BME280;73179;50.978;16.998;2024-01-30T07:53:11;101711.16;;;4.12;61.79
76605;BME280;73179;50.978;16.998;2024-01-30T07:55:37;101770.59;;;4.55;61.61
76605;BME280;73179;50.978;16.998;2024-01-30T07:58:04;101582.31;;;3.55;61.36
76605;BME280;73179;50.978;16.998;2024-01-30T08:00:31;101774.53;;;4.72;60.85
76605;BME280;73179;50.978;16.998;2024-01-30T08:02:57;101720.47;;;4.49;61.91
76605;BME280;73179;50.978;16.998;2024-01-30T08:05:24;101612.00;;;3.86;61.62
76605;BME280;73179;50.978;16.998;2024-01-30T08:07:50;101768.53;;;4.77;61.40
76605;BME280;73179;50.978;16.998;2024-01-30T08:10:17;101674.25;;;4.14;61.39
76605;BME280;73179;50.978;16.998;2024-01-30T08:12:46;101586.66;;;3.82;61.07
76605;BME280;73179;50.978;16.998;2024-01-30T08:15:12;101562.75;;;3.61;61.32
76605;BME280;73179;50.978;16.998;2024-01-30T08:17:39;101717.78;;;4.69;60.66
76605;BME280;73179;50.978;16.998;2024-01-30T08:20:06;101593.88;;;3.95;60.90
76605;BME280;73179;50.978;16.998;2024-01-30T08:22:34;101711.56;;;4.88;60.37
76605;BME280;73179;50.978;16.998;2024-01-30T08:25:00;101676.91;;;4.80;60.14
76605;BME280;73179;50.978;16.998;2024-01-30T08:27:27;101717.53;;;5.03;60.24
76605;BME280;73179;50.978;16.998;2024-01-30T08:29:52;101759.53;;;5.49;59.68
76605;BME280;73179;50.978;16.998;2024-01-30T08:32:19;101719.94;;;5.31;59.45
76605;BME280;73179;50.978;16.998;2024-01-30T08:34:45;101749.34;;;5.70;59.20
76605;BME280;73179;50.978;16.998;2024-01-30T08:37:11;101686.06;;;5.37;58.80
76605;BME280;73179;50.978;16.998;2024-01-30T08:39:37;101679.63;;;5.38;58.29
76605;BME280;73179;50.978;16.998;2024-01-30T08:42:04;101716.50;;;5.68;58.44
76605;BME280;73179;50.978;16.998;2024-01-30T08:44:30;101726.59;;;5.73;58.61
76605;BME280;73179;50.978;16.998;2024-01-30T08:46:57;101520.63;;;4.47;58.79
76605;BME280;73179;50.978;16.998;2024-01-30T08:49:23;101712.94;;;5.81;58.33
76605;BME280;73179;50.978;16.998;2024-01-30T08:51:49;101712.28;;;5.92;57.11
76605;BME280;73179;50.978;16.998;2024-01-30T08:54:16;101749.72;;;6.25;57.98
76605;BME280;73179;50.978;16.998;2024-01-30T08:56:42;101707.28;;;5.96;58.43
76605;BME280;73179;50.978;16.998;2024-01-30T08:59:08;101546.81;;;5.02;57.35
76605;BME280;73179;50.978;16.998;2024-01-30T09:01:35;101541.44;;;5.02;57.39
76605;BME280;73179;50.978;16.998;2024-01-30T09:04:00;101544.91;;;5.16;58.07
76605;BME280;73179;50.978;16.998;2024-01-30T09:06:27;101723.22;;;6.29;56.93
76605;BME280;73179;50.978;16.998;2024-01-30T09:08:54;101682.13;;;6.15;57.40
76605;BME280;73179;50.978;16.998;2024-01-30T09:11:20;101691.94;;;6.34;55.82
76605;BME280;73179;50.978;16.998;2024-01-30T09:13:46;101729.53;;;6.65;57.55
76605;BME280;73179;50.978;16.998;2024-01-30T09:16:13;101565.06;;;5.63;56.46
76605;BME280;73179;50.978;16.998;2024-01-30T09:18:39;101673.47;;;6.38;56.54
76605;BME280;73179;50.978;16.998;2024-01-30T09:21:06;101712.44;;;6.60;56.56
76605;BME280;73179;50.978;16.998;2024-01-30T09:23:32;101746.91;;;6.94;56.36
76605;BME280;73179;50.978;16.998;2024-01-30T09:26:00;101688.97;;;6.67;55.84
76605;BME280;73179;50.978;16.998;2024-01-30T09:28:26;101643.28;;;6.60;56.12
76605;BME280;73179;50.978;16.998;2024-01-30T09:30:53;101645.16;;;6.60;55.86
76605;BME280;73179;50.978;16.998;2024-01-30T09:33:19;101563.53;;;6.05;55.24
76605;BME280;73179;50.978;16.998;2024-01-30T09:35:46;101698.09;;;7.09;55.32
76605;BME280;73179;50.978;16.998;2024-01-30T09:38:12;101623.94;;;6.70;55.17
76605;BME280;73179;50.978;16.998;2024-01-30T09:40:38;101549.47;;;6.28;55.26
76605;BME280;73179;50.978;16.998;2024-01-30T09:43:04;101695.31;;;7.15;55.47
76605;BME280;73179;50.978;16.998;2024-01-30T09:45:32;101730.25;;;7.58;55.66
76605;BME280;73179;50.978;16.998;2024-01-30T09:47:59;101706.09;;;7.52;54.57
76605;BME280;73179;50.978;16.998;2024-01-30T09:50:26;101570.59;;;6.67;54.24
76605;BME280;73179;50.978;16.998;2024-01-30T09:52:55;101687.16;;;7.40;54.26
76605;BME280;73179;50.978;16.998;2024-01-30T09:55:23;101721.41;;;7.70;53.74
76605;BME280;73179;50.978;16.998;2024-01-30T09:57:49;101713.84;;;7.78;54.31
76605;BME280;73179;50.978;16.998;2024-01-30T10:00:16;101667.16;;;7.48;53.05
76605;BME280;73179;50.978;16.998;2024-01-30T10:02:42;101691.53;;;7.71;52.90
76605;BME280;73179;50.978;16.998;2024-01-30T10:05:08;101655.41;;;7.60;54.16
76605;BME280;73179;50.978;16.998;2024-01-30T10:07:35;101711.91;;;7.97;53.37
76605;BME280;73179;50.978;16.998;2024-01-30T10:10:02;101705.34;;;7.93;52.46
76605;BME280;73179;50.978;16.998;2024-01-30T10:12:29;101701.84;;;8.04;52.32
76605;BME280;73179;50.978;16.998;2024-01-30T10:14:56;101687.06;;;7.95;52.87
76605;BME280;73179;50.978;16.998;2024-01-30T10:17:25;101702.34;;;8.12;52.97
76605;BME280;73179;50.978;16.998;2024-01-30T10:19:51;101663.00;;;7.93;53.68
76605;BME280;73179;50.978;16.998;2024-01-30T10:22:17;101480.47;;;6.88;53.79
76605;BME280;73179;50.978;16.998;2024-01-30T10:24:44;101636.66;;;7.95;52.92
76605;BME280;73179;50.978;16.998;2024-01-30T10:27:11;101698.56;;;8.32;53.21
76605;BME280;73179;50.978;16.998;2024-01-30T10:29:37;101611.25;;;7.73;53.62
76605;BME280;73179;50.978;16.998;2024-01-30T10:32:05;101626.31;;;7.92;53.71
76605;BME280;73179;50.978;16.998;2024-01-30T10:34:32;101623.25;;;7.89;52.44
76605;BME280;73179;50.978;16.998;2024-01-30T10:37:06;101682.50;;;8.37;51.13
76605;BME280;73179;50.978;16.998;2024-01-30T10:39:38;101492.53;;;7.15;53.01
76605;BME280;73179;50.978;16.998;2024-01-30T10:42:05;101682.63;;;8.42;52.71
76605;BME280;73179;50.978;16.998;2024-01-30T10:44:54;101614.66;;;8.10;51.94
76605;BME280;73179;50.978;16.998;2024-01-30T10:47:27;101675.63;;;8.64;52.94
76605;BME280;73179;50.978;16.998;2024-01-30T10:49:57;101561.16;;;7.95;53.70
76605;BME280;73179;50.978;16.998;2024-01-30T10:52:23;101629.47;;;8.42;54.29
76605;BME280;73179;50.978;16.998;2024-01-30T10:54:54;101662.81;;;8.71;53.05
76605;BME280;73179;50.978;16.998;2024-01-30T10:57:23;101496.78;;;7.64;52.33
76605;BME280;73179;50.978;16.998;2024-01-30T10:59:49;101595.88;;;8.27;51.44
76605;BME280;73179;50.978;16.998;2024-01-30T11:02:18;101473.44;;;7.58;52.62
76605;BME280;73179;50.978;16.998;2024-01-30T11:04:45;101669.13;;;8.88;52.82
76605;BME280;73179;50.978;16.998;2024-01-30T11:07:19;101622.56;;;8.70;53.50
76605;BME280;73179;50.978;16.998;2024-01-30T11:09:59;101615.75;;;8.67;51.44
76605;BME280;73179;50.978;16.998;2024-01-30T11:12:31;101656.56;;;9.05;53.69
76605;BME280;73179;50.978;16.998;2024-01-30T11:15:14;101630.88;;;9.03;51.87
76605;BME280;73179;50.978;16.998;2024-01-30T11:20:27;101596.97;;;8.84;52.10
76605;BME280;73179;50.978;16.998;2024-01-30T11:22:55;101602.81;;;8.81;51.01
76605;BME280;73179;50.978;16.998;2024-01-30T11:25:24;101608.19;;;8.92;51.18
76605;BME280;73179;50.978;16.998;2024-01-30T11:27:54;101580.13;;;8.93;53.82
76605;BME280;73179;50.978;16.998;2024-01-30T11:30:31;101535.81;;;8.66;52.75
76605;BME280;73179;50.978;16.998;2024-01-30T11:35:33;101570.06;;;8.89;51.82
76605;BME280;73179;50.978;16.998;2024-01-30T11:38:00;101620.03;;;9.15;49.39
76605;BME280;73179;50.978;16.998;2024-01-30T11:40:31;101629.59;;;9.34;52.35
76605;BME280;73179;50.978;16.998;2024-01-30T11:42:59;101598.50;;;9.20;51.24
76605;BME280;73179;50.978;16.998;2024-01-30T11:45:27;101621.13;;;9.42;51.06
76605;BME280;73179;50.978;16.998;2024-01-30T11:47:54;101619.22;;;9.42;51.08
76605;BME280;73179;50.978;16.998;2024-01-30T11:50:21;101499.09;;;8.65;51.87
76605;BME280;73179;50.978;16.998;2024-01-30T11:52:47;101478.19;;;8.72;51.33
76605;BME280;73179;50.978;16.998;2024-01-30T11:55:14;101605.19;;;9.57;52.74
76605;BME280;73179;50.978;16.998;2024-01-30T11:57:41;101363.38;;;8.01;51.99
76605;BME280;73179;50.978;16.998;2024-01-30T12:00:14;101579.50;;;9.43;51.70
76605;BME280;73179;50.978;16.998;2024-01-30T12:02:42;101527.06;;;8.99;50.77
76605;BME280;73179;50.978;16.998;2024-01-30T12:05:09;101563.50;;;9.25;51.46
76605;BME280;73179;50.978;16.998;2024-01-30T12:07:35;101420.66;;;8.43;52.02
76605;BME280;73179;50.978;16.998;2024-01-30T12:10:02;101557.94;;;9.31;51.22
76605;BME280;73179;50.978;16.998;2024-01-30T12:12:29;101552.69;;;9.25;52.77
76605;BME280;73179;50.978;16.998;2024-01-30T12:14:56;101556.31;;;9.30;52.77
76605;BME280;73179;50.978;16.998;2024-01-30T12:17:32;101534.16;;;9.17;52.09
76605;BME280;73179;50.978;16.998;2024-01-30T12:20:12;101585.00;;;9.48;52.21
76605;BME280;73179;50.978;16.998;2024-01-30T12:22:40;101515.63;;;9.08;52.28
76605;BME280;73179;50.978;16.998;2024-01-30T12:25:09;101545.56;;;9.19;52.23
76605;BME280;73179;50.978;16.998;2024-01-30T12:27:36;101476.31;;;8.73;51.04
76605;BME280;73179;50.978;16.998;2024-01-30T12:30:09;101399.94;;;8.32;51.04
76605;BME280;73179;50.978;16.998;2024-01-30T12:32:37;101571.56;;;9.36;50.80
76605;BME280;73179;50.978;16.998;2024-01-30T12:35:07;101553.84;;;9.29;51.47
76605;BME280;73179;50.978;16.998;2024-01-30T12:37:34;101393.56;;;8.27;51.07
76605;BME280;73179;50.978;16.998;2024-01-30T12:40:01;101470.53;;;8.81;51.55
76605;BME280;73179;50.978;16.998;2024-01-30T12:42:28;101485.06;;;8.91;52.23
76605;BME280;73179;50.978;16.998;2024-01-30T12:44:57;101501.59;;;8.95;51.45
76605;BME280;73179;50.978;16.998;2024-01-30T12:47:25;101487.44;;;8.88;51.73
76605;BME280;73179;50.978;16.998;2024-01-30T12:49:51;101481.44;;;8.86;51.46
76605;BME280;73179;50.978;16.998;2024-01-30T12:52:20;101518.59;;;9.07;51.74
76605;BME280;73179;50.978;16.998;2024-01-30T12:54:48;101516.94;;;9.06;51.70